Knossos Palace — SYQO — position and weather

sailwx.info

Track history (hours):
 
Tides and Currents Weather Stations Pressure Air Temp Water Temp Dewpoint Dewpoint Depression Visibility Wind Speed Wind Dir Waves Ship Positions

Knossos Palace

Last reported at 2014-Nov-27 12:31 UTC. Time now 2014-Nov-27 13:02 UTC.
Position N 37°57' E 023°38'.

Length 214 m; beam 26.4 m; draft 7.3 m.

Type: Ship. MMSI: 237641000.

Date/timePositionNaut miles runAvg speedWind from/ knotsBaromVisibWave heightAir tempDewpointWater temp
2014-Nov-27 12:31N 37°57' E 023°38'0 0.0
2014-Nov-27 11:31N 37°57' E 023°38'0 0.0
2014-Nov-27 10:31N 37°57' E 023°38'0 0.0
2014-Nov-27 09:31N 37°57' E 023°38'0 0.0
2014-Nov-27 08:31N 37°57' E 023°38'0 0.0
2014-Nov-27 07:31N 37°57' E 023°38'0 0.0
2014-Nov-27 06:31N 37°57' E 023°38'0 0.0
2014-Nov-27 05:31N 37°57' E 023°38'3 3.4
2014-Nov-27 04:34N 37°53' E 023°38'2924.4
2014-Nov-27 03:22N 37°26' E 023°52'2124.6
2014-Nov-27 02:31N 37°07' E 024°01'2324.4
2014-Nov-27 01:34N 36°45' E 024°11'2424.5
2014-Nov-27 00:34N 36°23' E 024°25'2424.1
2014-Nov-26 23:34N 36°02' E 024°40'2524.6
2014-Nov-26 22:34N 35°41' E 024°55'6 1.6
2014-Nov-26 18:33N 35°36' E 024°59'2524.9
2014-Nov-26 17:33N 35°57' E 024°44'2525.1
2014-Nov-26 16:33N 36°19' E 024°28'2525.1
2014-Nov-26 15:33N 36°41' E 024°13'2625.1
2014-Nov-26 14:31N 37°05' E 024°01'3225.1
2014-Nov-26 13:14N 37°34' E 023°45'1725.1
2014-Nov-26 12:34N 37°50' E 023°36'7 6.8
2014-Nov-26 11:33N 37°57' E 023°38'0 0.0
2014-Nov-26 10:33N 37°57' E 023°38'0 0.0
2014-Nov-26 09:33N 37°57' E 023°38'10 9.9
2014-Nov-26 08:34N 37°47' E 023°41'2525.4
2014-Nov-26 07:33N 37°32' E 024°08'2626.0
2014-Nov-26 06:34N 37°31' E 024°40'1413.2
2014-Nov-26 05:30N 37°26' E 024°57'0 0.1
2014-Nov-26 04:30N 37°26' E 024°57'0 0.0
2014-Nov-26 03:30N 37°26' E 024°57'0 0.0
2014-Nov-26 02:30N 37°26' E 024°57'0 0.0
2014-Nov-26 01:30N 37°26' E 024°57'0 0.0
2014-Nov-26 00:30N 37°26' E 024°57'0 0.0
2014-Nov-25 23:30N 37°26' E 024°57'0 0.0
2014-Nov-25 22:33N 37°26' E 024°57'0 0.0
2014-Nov-25 21:30N 37°26' E 024°57'0 0.0
2014-Nov-25 20:30N 37°26' E 024°57'0 0.0
2014-Nov-25 19:30N 37°26' E 024°57'0 0.0
2014-Nov-25 18:33N 37°26' E 024°57'0 0.0
2014-Nov-25 17:30N 37°26' E 024°57'0 0.0
2014-Nov-25 16:30N 37°26' E 024°57'0 0.0
2014-Nov-25 15:33N 37°26' E 024°57'0 0.0
2014-Nov-25 14:30N 37°26' E 024°57'0 0.0
2014-Nov-25 13:33N 37°26' E 024°57'0 0.0
2014-Nov-25 12:33N 37°26' E 024°57'0 0.0
2014-Nov-25 11:33N 37°26' E 024°57'0 0.0
2014-Nov-25 10:33N 37°26' E 024°57'0 0.0
2014-Nov-25 09:30N 37°26' E 024°57'0 0.0
2014-Nov-25 08:33N 37°26' E 024°57'0 0.0
2014-Nov-25 07:30N 37°26' E 024°57'0 0.0
2014-Nov-25 06:30N 37°26' E 024°57'0 0.0
2014-Nov-25 05:30N 37°26' E 024°57'0 0.0
2014-Nov-25 04:30N 37°26' E 024°57'0 0.0
2014-Nov-25 03:30N 37°26' E 024°57'0 0.0
2014-Nov-25 02:30N 37°26' E 024°57'0 0.0
2014-Nov-25 01:30N 37°26' E 024°57'0 0.0
2014-Nov-25 00:30N 37°26' E 024°57'0 0.0
2014-Nov-24 23:30N 37°26' E 024°57'0 0.0
2014-Nov-24 22:29N 37°26' E 024°57'0 0.0
2014-Nov-24 21:30N 37°26' E 024°57'0 0.0
2014-Nov-24 20:30N 37°26' E 024°57'0 0.0
2014-Nov-24 19:30N 37°26' E 024°57'0 0.0
2014-Nov-24 18:33N 37°26' E 024°57'0 0.0
2014-Nov-24 17:30N 37°26' E 024°57'0 0.0
2014-Nov-24 16:30N 37°26' E 024°57'0 0.0
2014-Nov-24 15:30N 37°26' E 024°57'0 0.0
2014-Nov-24 14:30N 37°26' E 024°57'0 0.0
2014-Nov-24 13:30N 37°26' E 024°57'0 0.0
2014-Nov-24 12:30N 37°26' E 024°57'0 0.0
2014-Nov-24 11:33N 37°26' E 024°57'0 0.0
2014-Nov-24 10:30N 37°26' E 024°57'0 0.0
2014-Nov-24 09:30N 37°26' E 024°57'0 0.0
2014-Nov-24 08:30N 37°26' E 024°57'0 0.0
2014-Nov-24 07:30N 37°26' E 024°57'0 0.0
2014-Nov-24 06:30N 37°26' E 024°57'0 0.0
2014-Nov-24 05:30N 37°26' E 024°57'0 0.0
2014-Nov-24 04:30N 37°26' E 024°57'0 0.0
2014-Nov-24 03:30N 37°26' E 024°57'0 0.0
2014-Nov-24 02:30N 37°26' E 024°57'0 0.0
2014-Nov-24 01:30N 37°26' E 024°57'0 0.0
2014-Nov-24 00:30N 37°26' E 024°57'0 0.0
2014-Nov-23 23:30N 37°26' E 024°57'0 0.0
2014-Nov-23 22:30N 37°26' E 024°57'0 0.0
2014-Nov-23 21:30N 37°26' E 024°57'0 0.0
2014-Nov-23 20:30N 37°26' E 024°57'0 0.0
2014-Nov-23 19:30N 37°26' E 024°57'0 0.0
2014-Nov-23 18:30N 37°26' E 024°57'0 0.0
2014-Nov-23 17:24N 37°26' E 024°57'0 0.0
2014-Nov-23 16:30N 37°26' E 024°57'0 0.0
2014-Nov-23 15:30N 37°26' E 024°57'0 0.0
2014-Nov-23 14:30N 37°26' E 024°57'0 0.0
2014-Nov-23 13:30N 37°26' E 024°57'0 0.0
2014-Nov-23 12:30N 37°26' E 024°57'0 0.0
2014-Nov-23 11:30N 37°26' E 024°57'0 0.0
2014-Nov-23 10:30N 37°26' E 024°57'0 0.0
2014-Nov-23 09:30N 37°26' E 024°57'0 0.0
2014-Nov-23 08:30N 37°26' E 024°57'0 0.0
2014-Nov-23 07:30N 37°26' E 024°57'0 0.0
2014-Nov-23 06:30N 37°26' E 024°57'0 0.0
2014-Nov-23 05:30N 37°26' E 024°57'0 0.0
2014-Nov-23 04:30N 37°26' E 024°57'0 0.0
2014-Nov-23 03:30N 37°26' E 024°57'0 0.0
2014-Nov-23 02:30N 37°26' E 024°57'0 0.0
2014-Nov-23 01:30N 37°26' E 024°57'0 0.0
2014-Nov-23 00:30N 37°26' E 024°57'0 0.0
2014-Nov-22 23:30N 37°26' E 024°57'0 0.0
2014-Nov-22 22:30N 37°26' E 024°57'0 0.0
2014-Nov-22 21:30N 37°26' E 024°57'0 0.0
2014-Nov-22 20:30N 37°26' E 024°57'0 0.0
2014-Nov-22 19:30N 37°26' E 024°57'0 0.0
2014-Nov-22 18:30N 37°26' E 024°57'0 0.0
2014-Nov-22 17:24N 37°26' E 024°57'0 0.0
2014-Nov-22 16:30N 37°26' E 024°57'0 0.0
2014-Nov-22 15:30N 37°26' E 024°57'0 0.0
2014-Nov-22 14:30N 37°26' E 024°57'0 0.0
2014-Nov-22 13:30N 37°26' E 024°57'0 0.0
2014-Nov-22 12:30N 37°26' E 024°57'0 0.0
2014-Nov-22 11:30N 37°26' E 024°57'0 0.0
2014-Nov-22 10:30N 37°26' E 024°57'0 0.0
2014-Nov-22 09:30N 37°26' E 024°57'0 0.0
2014-Nov-22 08:33N 37°26' E 024°57'0 0.0
2014-Nov-22 07:30N 37°26' E 024°57'0 0.0
2014-Nov-22 06:30N 37°26' E 024°57'0 0.0
2014-Nov-22 05:30N 37°26' E 024°57'0 0.0
2014-Nov-22 04:30N 37°26' E 024°57'0 0.0
2014-Nov-22 03:30N 37°26' E 024°57'0 0.0
2014-Nov-22 02:30N 37°26' E 024°57'0 0.0
2014-Nov-22 01:30N 37°26' E 024°57'0 0.0
2014-Nov-22 00:33N 37°26' E 024°57'0 0.0
2014-Nov-21 23:30N 37°26' E 024°57'0 0.0
2014-Nov-21 22:30N 37°26' E 024°57'0 0.0
2014-Nov-21 21:30N 37°26' E 024°57'0 0.0
2014-Nov-21 20:30N 37°26' E 024°57'0 0.0
2014-Nov-21 19:30N 37°26' E 024°57'0 0.0
2014-Nov-21 18:30N 37°26' E 024°57'0 0.0
2014-Nov-21 17:30N 37°26' E 024°57'0 0.0
2014-Nov-21 16:30N 37°26' E 024°57'0 0.0
2014-Nov-21 15:30N 37°26' E 024°57'0 0.0
2014-Nov-21 14:30N 37°26' E 024°57'0 0.0
2014-Nov-21 13:33N 37°26' E 024°57'0 0.0
2014-Nov-21 12:30N 37°26' E 024°57'0 0.0
2014-Nov-21 11:33N 37°26' E 024°57'0 0.0
2014-Nov-21 10:30N 37°26' E 024°57'0 0.0
2014-Nov-21 09:30N 37°26' E 024°57'0 0.0
2014-Nov-21 08:30N 37°26' E 024°57'0 0.0
2014-Nov-21 07:30N 37°26' E 024°57'0 0.0
2014-Nov-21 06:30N 37°26' E 024°57'0 0.0
2014-Nov-21 05:30N 37°26' E 024°57'0 0.0
2014-Nov-21 04:30N 37°26' E 024°57'0 0.0
2014-Nov-21 03:33N 37°26' E 024°57'0 0.0
2014-Nov-21 02:30N 37°26' E 024°57'0 0.0
2014-Nov-21 01:30N 37°26' E 024°57'0 0.0
2014-Nov-21 00:30N 37°26' E 024°57'0 0.0
2014-Nov-20 23:30N 37°26' E 024°57'0 0.0
2014-Nov-20 22:30N 37°26' E 024°57'0 0.0
2014-Nov-20 21:30N 37°26' E 024°57'0 0.0
2014-Nov-20 20:30N 37°26' E 024°57'0 0.0
2014-Nov-20 19:30N 37°26' E 024°57'0 0.0
2014-Nov-20 18:30N 37°26' E 024°57'0 0.0
2014-Nov-20 17:33N 37°26' E 024°57'0 0.0
2014-Nov-20 16:30N 37°26' E 024°57'0 0.0
2014-Nov-20 15:30N 37°26' E 024°57'0 0.0
2014-Nov-20 14:29N 37°26' E 024°57'0 0.0
2014-Nov-20 13:32N 37°26' E 024°57'0 0.1
2014-Nov-20 12:34N 37°26' E 024°57'1010.1
2014-Nov-20 11:33N 37°16' E 024°59'2423.7
2014-Nov-20 10:33N 36°53' E 024°53'2323.1
2014-Nov-20 09:33N 36°30' E 024°51'2423.9
2014-Nov-20 08:33N 36°07' E 024°58'2423.7
2014-Nov-20 07:34N 35°43' E 025°04'2316.9
2014-Nov-20 06:12N 35°21' E 025°09'0 0.0
2014-Nov-20 05:24N 35°21' E 025°09'0 0.0
2014-Nov-20 04:33N 35°21' E 025°09'1414.3
2014-Nov-20 03:33N 35°34' E 025°01'1919.2
2014-Nov-20 02:33N 35°50' E 024°49'1919.5
2014-Nov-20 01:33N 36°07' E 024°38'5718.9
2014-Nov-19 22:33N 36°57' E 024°04'2118.8
2014-Nov-19 21:27N 37°16' E 023°55'2018.3
2014-Nov-19 20:23N 37°34' E 023°45'1619.3
2014-Nov-19 19:34N 37°49' E 023°38'7 7.3
2014-Nov-19 18:34N 37°57' E 023°38'0 0.0
2014-Nov-19 17:33N 37°57' E 023°38'0 0.0
2014-Nov-19 16:33N 37°57' E 023°38'0 0.0
2014-Nov-19 15:33N 37°57' E 023°38'0 0.0
2014-Nov-19 14:33N 37°57' E 023°38'0 0.0
2014-Nov-19 13:33N 37°57' E 023°38'0 0.0
2014-Nov-19 12:33N 37°57' E 023°38'0 0.0
2014-Nov-19 11:33N 37°57' E 023°38'0 0.0
2014-Nov-19 10:33N 37°57' E 023°38'0 0.0
2014-Nov-19 09:33N 37°57' E 023°38'0 0.0
2014-Nov-19 08:33N 37°57' E 023°38'0 0.0
2014-Nov-19 07:33N 37°57' E 023°38'0 0.0
2014-Nov-19 06:33N 37°57' E 023°38'0 0.0
2014-Nov-19 05:33N 37°57' E 023°38'0 0.1
2014-Nov-19 04:34N 37°56' E 023°38'1515.0
2014-Nov-19 03:33N 37°42' E 023°45'2019.8
2014-Nov-19 02:33N 37°24' E 023°54'1919.5
2014-Nov-19 01:33N 37°06' E 024°02'2019.8
2014-Nov-19 00:33N 36°47' E 024°11'2020.0
2014-Nov-18 23:33N 36°29' E 024°22'2020.0
2014-Nov-18 22:33N 36°12' E 024°34'2019.7
2014-Nov-18 21:33N 35°55' E 024°46'2020.2
2014-Nov-18 20:33N 35°37' E 024°59'1818.3
2014-Nov-18 19:33N 35°21' E 025°09'0 0.2
2014-Nov-18 18:32N 35°21' E 025°09'0 0.0
2014-Nov-18 17:32N 35°21' E 025°09'0 0.0
2014-Nov-18 16:32N 35°21' E 025°09'0 0.0
2014-Nov-18 15:32N 35°21' E 025°09'0 0.0
2014-Nov-18 14:32N 35°21' E 025°09'0 0.0
2014-Nov-18 13:32N 35°21' E 025°09'0 0.0
2014-Nov-18 12:32N 35°21' E 025°09'0 0.0
2014-Nov-18 11:32N 35°21' E 025°09'0 0.0
2014-Nov-18 10:32N 35°21' E 025°09'0 0.0
2014-Nov-18 09:32N 35°21' E 025°09'0 0.0
2014-Nov-18 08:32N 35°21' E 025°09'0 0.0
2014-Nov-18 07:32N 35°21' E 025°09'0 0.0
2014-Nov-18 06:32N 35°21' E 025°09'0 0.0
2014-Nov-18 05:32N 35°21' E 025°09'0 0.0
2014-Nov-18 04:34N 35°21' E 025°09'1515.3
2014-Nov-18 03:33N 35°35' E 025°00'1919.0
2014-Nov-18 02:33N 35°51' E 024°49'1919.3
2014-Nov-18 01:33N 36°08' E 024°37'1918.9
2014-Nov-18 00:33N 36°24' E 024°25'1818.2
2014-Nov-17 23:33N 36°40' E 024°14'1818.2
2014-Nov-17 22:33N 36°57' E 024°05'1918.6
2014-Nov-17 21:33N 37°14' E 023°56'1918.7
2014-Nov-17 20:33N 37°31' E 023°47'1919.2
2014-Nov-17 19:33N 37°49' E 023°37'8 8.0
2014-Nov-17 18:33N 37°57' E 023°38'0 0.0
2014-Nov-17 17:32N 37°57' E 023°38'0 0.0
2014-Nov-17 16:32N 37°57' E 023°38'0 0.0
2014-Nov-17 15:32N 37°57' E 023°38'0 0.0
2014-Nov-17 14:32N 37°57' E 023°38'0 0.0
2014-Nov-17 13:32N 37°57' E 023°38'0 0.0
2014-Nov-17 12:32N 37°57' E 023°38'  
Track history (hours):
 
Tides and Currents Weather Stations Pressure Air Temp Water Temp Dewpoint Dewpoint Depression Visibility Wind Speed Wind Dir Waves Ship Positions

Knossos Palace

Last reported at 2014-Nov-27 12:31 UTC. Time now 2014-Nov-27 13:02 UTC.
Position N 37°57' E 023°38'.

Length 214 m; beam 26.4 m; draft 7.3 m.

Type: Ship. MMSI: 237641000.

Date/timePositionNaut miles runAvg speedWind from/ knotsBaromVisibWave heightAir tempDewpointWater temp
2014-Nov-27 12:31N 37°57' E 023°38'0 0.0
2014-Nov-27 11:31N 37°57' E 023°38'0 0.0
2014-Nov-27 10:31N 37°57' E 023°38'0 0.0
2014-Nov-27 09:31N 37°57' E 023°38'0 0.0
2014-Nov-27 08:31N 37°57' E 023°38'0 0.0
2014-Nov-27 07:31N 37°57' E 023°38'0 0.0
2014-Nov-27 06:31N 37°57' E 023°38'0 0.0
2014-Nov-27 05:31N 37°57' E 023°38'3 3.4
2014-Nov-27 04:34N 37°53' E 023°38'2924.4
2014-Nov-27 03:22N 37°26' E 023°52'2124.6
2014-Nov-27 02:31N 37°07' E 024°01'2324.4
2014-Nov-27 01:34N 36°45' E 024°11'2424.5
2014-Nov-27 00:34N 36°23' E 024°25'2424.1
2014-Nov-26 23:34N 36°02' E 024°40'2524.6
2014-Nov-26 22:34N 35°41' E 024°55'6 1.6
2014-Nov-26 18:33N 35°36' E 024°59'2524.9
2014-Nov-26 17:33N 35°57' E 024°44'2525.1
2014-Nov-26 16:33N 36°19' E 024°28'2525.1
2014-Nov-26 15:33N 36°41' E 024°13'2625.1
2014-Nov-26 14:31N 37°05' E 024°01'3225.1
2014-Nov-26 13:14N 37°34' E 023°45'1725.1
2014-Nov-26 12:34N 37°50' E 023°36'7 6.8
2014-Nov-26 11:33N 37°57' E 023°38'0 0.0
2014-Nov-26 10:33N 37°57' E 023°38'0 0.0
2014-Nov-26 09:33N 37°57' E 023°38'10 9.9
2014-Nov-26 08:34N 37°47' E 023°41'2525.4
2014-Nov-26 07:33N 37°32' E 024°08'2626.0
2014-Nov-26 06:34N 37°31' E 024°40'1413.2
2014-Nov-26 05:30N 37°26' E 024°57'0 0.1
2014-Nov-26 04:30N 37°26' E 024°57'0 0.0
2014-Nov-26 03:30N 37°26' E 024°57'0 0.0
2014-Nov-26 02:30N 37°26' E 024°57'0 0.0
2014-Nov-26 01:30N 37°26' E 024°57'0 0.0
2014-Nov-26 00:30N 37°26' E 024°57'0 0.0
2014-Nov-25 23:30N 37°26' E 024°57'0 0.0
2014-Nov-25 22:33N 37°26' E 024°57'0 0.0
2014-Nov-25 21:30N 37°26' E 024°57'0 0.0
2014-Nov-25 20:30N 37°26' E 024°57'0 0.0
2014-Nov-25 19:30N 37°26' E 024°57'0 0.0
2014-Nov-25 18:33N 37°26' E 024°57'0 0.0
2014-Nov-25 17:30N 37°26' E 024°57'0 0.0
2014-Nov-25 16:30N 37°26' E 024°57'0 0.0
2014-Nov-25 15:33N 37°26' E 024°57'0 0.0
2014-Nov-25 14:30N 37°26' E 024°57'0 0.0
2014-Nov-25 13:33N 37°26' E 024°57'0 0.0
2014-Nov-25 12:33N 37°26' E 024°57'0 0.0
2014-Nov-25 11:33N 37°26' E 024°57'0 0.0
2014-Nov-25 10:33N 37°26' E 024°57'0 0.0
2014-Nov-25 09:30N 37°26' E 024°57'0 0.0
2014-Nov-25 08:33N 37°26' E 024°57'0 0.0
2014-Nov-25 07:30N 37°26' E 024°57'0 0.0
2014-Nov-25 06:30N 37°26' E 024°57'0 0.0
2014-Nov-25 05:30N 37°26' E 024°57'0 0.0
2014-Nov-25 04:30N 37°26' E 024°57'0 0.0
2014-Nov-25 03:30N 37°26' E 024°57'0 0.0
2014-Nov-25 02:30N 37°26' E 024°57'0 0.0
2014-Nov-25 01:30N 37°26' E 024°57'0 0.0
2014-Nov-25 00:30N 37°26' E 024°57'0 0.0
2014-Nov-24 23:30N 37°26' E 024°57'0 0.0
2014-Nov-24 22:29N 37°26' E 024°57'0 0.0
2014-Nov-24 21:30N 37°26' E 024°57'0 0.0
2014-Nov-24 20:30N 37°26' E 024°57'0 0.0
2014-Nov-24 19:30N 37°26' E 024°57'0 0.0
2014-Nov-24 18:33N 37°26' E 024°57'0 0.0
2014-Nov-24 17:30N 37°26' E 024°57'0 0.0
2014-Nov-24 16:30N 37°26' E 024°57'0 0.0
2014-Nov-24 15:30N 37°26' E 024°57'0 0.0
2014-Nov-24 14:30N 37°26' E 024°57'0 0.0
2014-Nov-24 13:30N 37°26' E 024°57'0 0.0
2014-Nov-24 12:30N 37°26' E 024°57'0 0.0
2014-Nov-24 11:33N 37°26' E 024°57'0 0.0
2014-Nov-24 10:30N 37°26' E 024°57'0 0.0
2014-Nov-24 09:30N 37°26' E 024°57'0 0.0
2014-Nov-24 08:30N 37°26' E 024°57'0 0.0
2014-Nov-24 07:30N 37°26' E 024°57'0 0.0
2014-Nov-24 06:30N 37°26' E 024°57'0 0.0
2014-Nov-24 05:30N 37°26' E 024°57'0 0.0
2014-Nov-24 04:30N 37°26' E 024°57'0 0.0
2014-Nov-24 03:30N 37°26' E 024°57'0 0.0
2014-Nov-24 02:30N 37°26' E 024°57'0 0.0
2014-Nov-24 01:30N 37°26' E 024°57'0 0.0
2014-Nov-24 00:30N 37°26' E 024°57'0 0.0
2014-Nov-23 23:30N 37°26' E 024°57'0 0.0
2014-Nov-23 22:30N 37°26' E 024°57'0 0.0
2014-Nov-23 21:30N 37°26' E 024°57'0 0.0
2014-Nov-23 20:30N 37°26' E 024°57'0 0.0
2014-Nov-23 19:30N 37°26' E 024°57'0 0.0
2014-Nov-23 18:30N 37°26' E 024°57'0 0.0
2014-Nov-23 17:24N 37°26' E 024°57'0 0.0
2014-Nov-23 16:30N 37°26' E 024°57'0 0.0
2014-Nov-23 15:30N 37°26' E 024°57'0 0.0
2014-Nov-23 14:30N 37°26' E 024°57'0 0.0
2014-Nov-23 13:30N 37°26' E 024°57'0 0.0
2014-Nov-23 12:30N 37°26' E 024°57'0 0.0
2014-Nov-23 11:30N 37°26' E 024°57'0 0.0
2014-Nov-23 10:30N 37°26' E 024°57'0 0.0
2014-Nov-23 09:30N 37°26' E 024°57'0 0.0
2014-Nov-23 08:30N 37°26' E 024°57'0 0.0
2014-Nov-23 07:30N 37°26' E 024°57'0 0.0
2014-Nov-23 06:30N 37°26' E 024°57'0 0.0
2014-Nov-23 05:30N 37°26' E 024°57'0 0.0
2014-Nov-23 04:30N 37°26' E 024°57'0 0.0
2014-Nov-23 03:30N 37°26' E 024°57'0 0.0
2014-Nov-23 02:30N 37°26' E 024°57'0 0.0
2014-Nov-23 01:30N 37°26' E 024°57'0 0.0
2014-Nov-23 00:30N 37°26' E 024°57'0 0.0
2014-Nov-22 23:30N 37°26' E 024°57'0 0.0
2014-Nov-22 22:30N 37°26' E 024°57'0 0.0
2014-Nov-22 21:30N 37°26' E 024°57'0 0.0
2014-Nov-22 20:30N 37°26' E 024°57'0 0.0
2014-Nov-22 19:30N 37°26' E 024°57'0 0.0
2014-Nov-22 18:30N 37°26' E 024°57'0 0.0
2014-Nov-22 17:24N 37°26' E 024°57'0 0.0
2014-Nov-22 16:30N 37°26' E 024°57'0 0.0
2014-Nov-22 15:30N 37°26' E 024°57'0 0.0
2014-Nov-22 14:30N 37°26' E 024°57'0 0.0
2014-Nov-22 13:30N 37°26' E 024°57'0 0.0
2014-Nov-22 12:30N 37°26' E 024°57'0 0.0
2014-Nov-22 11:30N 37°26' E 024°57'0 0.0
2014-Nov-22 10:30N 37°26' E 024°57'0 0.0
2014-Nov-22 09:30N 37°26' E 024°57'0 0.0
2014-Nov-22 08:33N 37°26' E 024°57'0 0.0
2014-Nov-22 07:30N 37°26' E 024°57'0 0.0
2014-Nov-22 06:30N 37°26' E 024°57'0 0.0
2014-Nov-22 05:30N 37°26' E 024°57'0 0.0
2014-Nov-22 04:30N 37°26' E 024°57'0 0.0
2014-Nov-22 03:30N 37°26' E 024°57'0 0.0
2014-Nov-22 02:30N 37°26' E 024°57'0 0.0
2014-Nov-22 01:30N 37°26' E 024°57'0 0.0
2014-Nov-22 00:33N 37°26' E 024°57'0 0.0
2014-Nov-21 23:30N 37°26' E 024°57'0 0.0
2014-Nov-21 22:30N 37°26' E 024°57'0 0.0
2014-Nov-21 21:30N 37°26' E 024°57'0 0.0
2014-Nov-21 20:30N 37°26' E 024°57'0 0.0
2014-Nov-21 19:30N 37°26' E 024°57'0 0.0
2014-Nov-21 18:30N 37°26' E 024°57'0 0.0
2014-Nov-21 17:30N 37°26' E 024°57'0 0.0
2014-Nov-21 16:30N 37°26' E 024°57'0 0.0
2014-Nov-21 15:30N 37°26' E 024°57'0 0.0
2014-Nov-21 14:30N 37°26' E 024°57'0 0.0
2014-Nov-21 13:33N 37°26' E 024°57'0 0.0
2014-Nov-21 12:30N 37°26' E 024°57'0 0.0
2014-Nov-21 11:33N 37°26' E 024°57'0 0.0
2014-Nov-21 10:30N 37°26' E 024°57'0 0.0
2014-Nov-21 09:30N 37°26' E 024°57'0 0.0
2014-Nov-21 08:30N 37°26' E 024°57'0 0.0
2014-Nov-21 07:30N 37°26' E 024°57'0 0.0
2014-Nov-21 06:30N 37°26' E 024°57'0 0.0
2014-Nov-21 05:30N 37°26' E 024°57'0 0.0
2014-Nov-21 04:30N 37°26' E 024°57'0 0.0
2014-Nov-21 03:33N 37°26' E 024°57'0 0.0
2014-Nov-21 02:30N 37°26' E 024°57'0 0.0
2014-Nov-21 01:30N 37°26' E 024°57'0 0.0
2014-Nov-21 00:30N 37°26' E 024°57'0 0.0
2014-Nov-20 23:30N 37°26' E 024°57'0 0.0
2014-Nov-20 22:30N 37°26' E 024°57'0 0.0
2014-Nov-20 21:30N 37°26' E 024°57'0 0.0
2014-Nov-20 20:30N 37°26' E 024°57'0 0.0
2014-Nov-20 19:30N 37°26' E 024°57'0 0.0
2014-Nov-20 18:30N 37°26' E 024°57'0 0.0
2014-Nov-20 17:33N 37°26' E 024°57'0 0.0
2014-Nov-20 16:30N 37°26' E 024°57'0 0.0
2014-Nov-20 15:30N 37°26' E 024°57'0 0.0
2014-Nov-20 14:29N 37°26' E 024°57'0 0.0
2014-Nov-20 13:32N 37°26' E 024°57'0 0.1
2014-Nov-20 12:34N 37°26' E 024°57'1010.1
2014-Nov-20 11:33N 37°16' E 024°59'2423.7
2014-Nov-20 10:33N 36°53' E 024°53'2323.1
2014-Nov-20 09:33N 36°30' E 024°51'2423.9
2014-Nov-20 08:33N 36°07' E 024°58'2423.7
2014-Nov-20 07:34N 35°43' E 025°04'2316.9
2014-Nov-20 06:12N 35°21' E 025°09'0 0.0
2014-Nov-20 05:24N 35°21' E 025°09'0 0.0
2014-Nov-20 04:33N 35°21' E 025°09'1414.3
2014-Nov-20 03:33N 35°34' E 025°01'1919.2
2014-Nov-20 02:33N 35°50' E 024°49'1919.5
2014-Nov-20 01:33N 36°07' E 024°38'5718.9
2014-Nov-19 22:33N 36°57' E 024°04'2118.8
2014-Nov-19 21:27N 37°16' E 023°55'2018.3
2014-Nov-19 20:23N 37°34' E 023°45'1619.3
2014-Nov-19 19:34N 37°49' E 023°38'7 7.3
2014-Nov-19 18:34N 37°57' E 023°38'0 0.0
2014-Nov-19 17:33N 37°57' E 023°38'0 0.0
2014-Nov-19 16:33N 37°57' E 023°38'0 0.0
2014-Nov-19 15:33N 37°57' E 023°38'0 0.0
2014-Nov-19 14:33N 37°57' E 023°38'0 0.0
2014-Nov-19 13:33N 37°57' E 023°38'0 0.0
2014-Nov-19 12:33N 37°57' E 023°38'0 0.0
2014-Nov-19 11:33N 37°57' E 023°38'0 0.0
2014-Nov-19 10:33N 37°57' E 023°38'0 0.0
2014-Nov-19 09:33N 37°57' E 023°38'0 0.0
2014-Nov-19 08:33N 37°57' E 023°38'0 0.0
2014-Nov-19 07:33N 37°57' E 023°38'0 0.0
2014-Nov-19 06:33N 37°57' E 023°38'0 0.0
2014-Nov-19 05:33N 37°57' E 023°38'0 0.1
2014-Nov-19 04:34N 37°56' E 023°38'1515.0
2014-Nov-19 03:33N 37°42' E 023°45'2019.8
2014-Nov-19 02:33N 37°24' E 023°54'1919.5
2014-Nov-19 01:33N 37°06' E 024°02'2019.8
2014-Nov-19 00:33N 36°47' E 024°11'2020.0
2014-Nov-18 23:33N 36°29' E 024°22'2020.0
2014-Nov-18 22:33N 36°12' E 024°34'2019.7
2014-Nov-18 21:33N 35°55' E 024°46'2020.2
2014-Nov-18 20:33N 35°37' E 024°59'1818.3
2014-Nov-18 19:33N 35°21' E 025°09'0 0.2
2014-Nov-18 18:32N 35°21' E 025°09'0 0.0
2014-Nov-18 17:32N 35°21' E 025°09'0 0.0
2014-Nov-18 16:32N 35°21' E 025°09'0 0.0
2014-Nov-18 15:32N 35°21' E 025°09'0 0.0
2014-Nov-18 14:32N 35°21' E 025°09'0 0.0
2014-Nov-18 13:32N 35°21' E 025°09'0 0.0
2014-Nov-18 12:32N 35°21' E 025°09'0 0.0
2014-Nov-18 11:32N 35°21' E 025°09'0 0.0
2014-Nov-18 10:32N 35°21' E 025°09'0 0.0
2014-Nov-18 09:32N 35°21' E 025°09'0 0.0
2014-Nov-18 08:32N 35°21' E 025°09'0 0.0
2014-Nov-18 07:32N 35°21' E 025°09'0 0.0
2014-Nov-18 06:32N 35°21' E 025°09'0 0.0
2014-Nov-18 05:32N 35°21' E 025°09'0 0.0
2014-Nov-18 04:34N 35°21' E 025°09'1515.3
2014-Nov-18 03:33N 35°35' E 025°00'1919.0
2014-Nov-18 02:33N 35°51' E 024°49'1919.3
2014-Nov-18 01:33N 36°08' E 024°37'1918.9
2014-Nov-18 00:33N 36°24' E 024°25'1818.2
2014-Nov-17 23:33N 36°40' E 024°14'1818.2
2014-Nov-17 22:33N 36°57' E 024°05'1918.6
2014-Nov-17 21:33N 37°14' E 023°56'1918.7
2014-Nov-17 20:33N 37°31' E 023°47'1919.2
2014-Nov-17 19:33N 37°49' E 023°37'8 8.0
2014-Nov-17 18:33N 37°57' E 023°38'0 0.0
2014-Nov-17 17:32N 37°57' E 023°38'0 0.0
2014-Nov-17 16:32N 37°57' E 023°38'0 0.0
2014-Nov-17 15:32N 37°57' E 023°38'0 0.0
2014-Nov-17 14:32N 37°57' E 023°38'0 0.0
2014-Nov-17 13:32N 37°57' E 023°38'0 0.0
2014-Nov-17 12:32N 37°57' E 023°38'  

Dump ship's entire track history